Time;durP1;ratioP1;P1;durP2;ratioP2;P2;SDS_P1;SDS_P2;PMS_P1;PMS_P2;Temp;Humidity;BMP_temperature;BMP_pressure;BME280_temperature;BME280_humidity;BME280_pressure;Samples;Min_cycle;Max_cycle;Signal;HPM_P1;HPM_P2
2023/02/06 00:00:22;;;;;;;16.17;4.27;;;;;;;;;;5030631;28;20286;-85
2023/02/06 00:02:48;;;;;;;11.60;3.37;;;;;;;;;;5028790;28;20170;-86
2023/02/06 00:05:14;;;;;;;10.90;3.77;;;;;;;;;;5028768;28;20621;-86
2023/02/06 00:07:40;;;;;;;7.63;3.63;;;;;;;;;;5019319;28;20162;-87
2023/02/06 00:10:06;;;;;;;14.00;3.90;;;;;;;;;;5026681;28;20189;-87
2023/02/06 00:12:32;;;;;;;9.67;3.60;;;;;;;;;;5027049;28;20205;-87
2023/02/06 00:14:58;;;;;;;12.17;3.47;;;;;;;;;;5026502;28;20209;-86
2023/02/06 00:17:24;;;;;;;9.50;3.50;;;;;;;;;;5031211;28;20175;-86
2023/02/06 00:19:50;;;;;;;15.67;4.00;;;;;;;;;;5026930;28;20177;-87
2023/02/06 00:22:17;;;;;;;11.90;3.30;;;;;;;;;;5029643;28;20204;-87
2023/02/06 00:24:43;;;;;;;11.43;3.87;;;;;;;;;;5023373;28;20190;-86
2023/02/06 00:27:09;;;;;;;9.03;2.80;;;;;;;;;;5028837;28;20193;-87
2023/02/06 00:29:35;;;;;;;12.67;3.53;;;;;;;;;;5020066;28;20202;-87
2023/02/06 00:32:01;;;;;;;14.30;3.57;;;;;;;;;;5029596;28;20186;-86
2023/02/06 00:34:27;;;;;;;7.30;3.57;;;;;;;;;;5031957;28;20537;-87
2023/02/06 00:36:53;;;;;;;9.63;4.00;;;;;;;;;;5026479;28;20673;-86
2023/02/06 00:39:19;;;;;;;8.63;2.70;;;;;;;;;;5028025;28;20178;-87
2023/02/06 00:41:45;;;;;;;10.17;3.40;;;;;;;;;;5028400;28;20185;-87
2023/02/06 00:44:11;;;;;;;7.17;3.53;;;;;;;;;;5030989;28;20178;-88
2023/02/06 00:46:37;;;;;;;9.83;3.10;;;;;;;;;;5030348;28;20190;-86
2023/02/06 00:49:03;;;;;;;7.77;2.97;;;;;;;;;;5032571;28;20212;-89
2023/02/06 00:51:30;;;;;;;9.73;3.93;;;;;;;;;;5025152;28;20202;-86
2023/02/06 00:53:56;;;;;;;9.20;3.03;;;;;;;;;;5025866;28;20212;-87
2023/02/06 00:56:22;;;;;;;7.50;3.07;;;;;;;;;;5031204;28;20225;-86
2023/02/06 00:58:48;;;;;;;10.80;3.23;;;;;;;;;;5030457;28;20178;-87
2023/02/06 01:01:14;;;;;;;8.50;4.03;;;;;;;;;;5032178;28;20188;-87
2023/02/06 01:03:40;;;;;;;10.27;3.17;;;;;;;;;;5025186;28;20186;-86
2023/02/06 01:06:06;;;;;;;9.93;3.40;;;;;;;;;;5031898;28;20251;-87
2023/02/06 01:08:32;;;;;;;5.60;3.20;;;;;;;;;;5030690;28;20197;-87
2023/02/06 01:10:58;;;;;;;7.20;2.67;;;;;;;;;;5024621;28;20190;-87
2023/02/06 01:13:24;;;;;;;3.77;2.53;;;;;;;;;;5029402;28;20468;-87
2023/02/06 01:15:50;;;;;;;8.07;3.23;;;;;;;;;;5026987;28;20260;-86
2023/02/06 01:18:16;;;;;;;12.03;3.27;;;;;;;;;;5031720;28;20215;-87
2023/02/06 01:20:42;;;;;;;5.90;3.00;;;;;;;;;;5025678;28;20272;-87
2023/02/06 01:23:09;;;;;;;5.90;3.10;;;;;;;;;;5028503;28;20185;-87
2023/02/06 01:25:36;;;;;;;7.37;3.37;;;;;;;;;;5030295;28;20204;-86
2023/02/06 01:28:02;;;;;;;8.00;3.33;;;;;;;;;;5024035;28;20626;-87
2023/02/06 01:30:28;;;;;;;8.00;3.17;;;;;;;;;;5031334;28;20212;-86
2023/02/06 01:32:54;;;;;;;11.57;3.73;;;;;;;;;;5022444;28;20187;-86
2023/02/06 01:35:20;;;;;;;6.57;2.77;;;;;;;;;;5026873;28;20193;-87
2023/02/06 01:37:46;;;;;;;6.33;2.90;;;;;;;;;;5028446;28;20158;-86
2023/02/06 01:40:14;;;;;;;10.03;3.63;;;;;;;;;;5030003;28;20185;-86
2023/02/06 01:42:40;;;;;;;12.17;3.33;;;;;;;;;;5026202;28;20277;-87
2023/02/06 01:45:25;;;;;;;9.63;2.67;;;;;;;;;;5032541;28;20652;-86
2023/02/06 01:47:54;;;;;;;8.93;2.80;;;;;;;;;;5025356;28;20185;-85
2023/02/06 01:50:20;;;;;;;6.03;3.13;;;;;;;;;;5027036;28;20337;-85
2023/02/06 01:52:46;;;;;;;5.63;2.80;;;;;;;;;;5025454;28;20394;-86
2023/02/06 01:55:13;;;;;;;11.10;3.50;;;;;;;;;;5025659;28;20693;-86
2023/02/06 01:57:39;;;;;;;9.63;2.93;;;;;;;;;;5024954;28;20224;-86
2023/02/06 02:00:07;;;;;;;9.37;2.87;;;;;;;;;;5022340;28;20538;-85
2023/02/06 02:02:34;;;;;;;7.03;3.10;;;;;;;;;;5021756;28;20627;-87
2023/02/06 02:05:00;;;;;;;7.80;3.13;;;;;;;;;;5034649;28;20181;-86
2023/02/06 02:07:28;;;;;;;7.23;2.93;;;;;;;;;;5031813;28;20178;-86
2023/02/06 02:09:54;;;;;;;8.03;2.97;;;;;;;;;;5025380;28;20185;-87
2023/02/06 02:12:20;;;;;;;4.93;2.40;;;;;;;;;;5027922;28;20288;-87
2023/02/06 02:14:47;;;;;;;11.47;3.60;;;;;;;;;;5029219;28;20691;-86
2023/02/06 02:17:31;;;;;;;9.90;2.93;;;;;;;;;;5026927;28;20177;-87
2023/02/06 02:20:16;;;;;;;8.27;2.93;;;;;;;;;;5031991;28;20213;-86
2023/02/06 02:22:46;;;;;;;7.97;3.67;;;;;;;;;;5028025;28;20181;-86
2023/02/06 02:25:30;;;;;;;6.47;3.33;;;;;;;;;;5033360;28;20213;-86
2023/02/06 02:28:15;;;;;;;9.20;2.87;;;;;;;;;;5029860;28;20186;-86
2023/02/06 02:30:52;;;;;;;10.90;3.53;;;;;;;;;;5043916;28;20208;-85
2023/02/06 02:33:36;;;;;;;10.23;3.33;;;;;;;;;;5029211;28;20190;-86
2023/02/06 02:36:08;;;;;;;5.43;2.97;;;;;;;;;;5029570;28;20205;-86
2023/02/06 02:38:51;;;;;;;6.27;2.80;;;;;;;;;;5026640;28;20182;-85
2023/02/06 02:41:20;;;;;;;8.00;2.87;;;;;;;;;;5029639;28;20224;-87
2023/02/06 02:44:06;;;;;;;11.40;3.17;;;;;;;;;;5031712;28;20253;-85
2023/02/06 02:46:35;;;;;;;7.50;2.43;;;;;;;;;;5023027;28;20182;-87
2023/02/06 02:49:24;;;;;;;9.07;3.40;;;;;;;;;;5048648;28;20190;-85
2023/02/06 02:51:51;;;;;;;13.77;3.77;;;;;;;;;;5032415;28;20193;-88
2023/02/06 02:54:17;;;;;;;6.33;2.80;;;;;;;;;;5027666;28;20289;-85
2023/02/06 02:56:43;;;;;;;7.27;3.37;;;;;;;;;;5029719;28;20799;-85
2023/02/06 02:59:22;;;;;;;13.73;3.57;;;;;;;;;;5027307;28;20822;-87
2023/02/06 03:02:02;;;;;;;7.97;3.10;;;;;;;;;;5034028;28;20630;-86
2023/02/06 03:04:34;;;;;;;5.93;3.10;;;;;;;;;;5028564;28;20170;-86
2023/02/06 03:07:09;;;;;;;7.03;2.80;;;;;;;;;;5028488;28;20192;-86
2023/02/06 03:09:35;;;;;;;7.17;3.17;;;;;;;;;;5028726;28;20604;-87
2023/02/06 03:12:09;;;;;;;9.70;3.00;;;;;;;;;;5031348;28;20315;-87
2023/02/06 03:14:59;;;;;;;6.93;3.10;;;;;;;;;;5029731;28;20537;-86
2023/02/06 03:17:30;;;;;;;7.83;3.37;;;;;;;;;;5022558;28;20198;-87
2023/02/06 03:19:57;;;;;;;7.07;3.40;;;;;;;;;;5031204;28;20173;-86
2023/02/06 03:22:25;;;;;;;6.67;2.80;;;;;;;;;;5023347;28;20182;-86
2023/02/06 03:24:52;;;;;;;9.53;3.80;;;;;;;;;;5028733;28;20206;-86
2023/02/06 03:27:19;;;;;;;9.10;3.20;;;;;;;;;;5027160;28;20181;-87
2023/02/06 03:29:46;;;;;;;7.83;2.40;;;;;;;;;;5030464;28;20212;-86
2023/02/06 03:32:20;;;;;;;8.80;3.60;;;;;;;;;;5025843;28;20653;-86
2023/02/06 03:34:50;;;;;;;10.47;2.97;;;;;;;;;;5024297;28;20241;-86
2023/02/06 03:37:16;;;;;;;9.83;3.53;;;;;;;;;;5026455;28;20215;-85
2023/02/06 03:39:43;;;;;;;4.60;2.63;;;;;;;;;;5028287;28;20170;-86
2023/02/06 03:42:10;;;;;;;12.07;3.33;;;;;;;;;;5026116;28;20183;-86
2023/02/06 03:44:41;;;;;;;8.03;3.30;;;;;;;;;;5027841;28;20544;-86
2023/02/06 03:47:08;;;;;;;5.70;2.70;;;;;;;;;;5025707;28;20262;-86
2023/02/06 03:49:35;;;;;;;6.77;2.83;;;;;;;;;;5028324;28;20629;-85
2023/02/06 03:52:03;;;;;;;6.50;3.00;;;;;;;;;;5031976;28;20189;-85
2023/02/06 03:54:30;;;;;;;9.50;3.60;;;;;;;;;;5027863;28;20617;-86
2023/02/06 03:56:59;;;;;;;8.83;2.70;;;;;;;;;;5029131;28;20217;-86
2023/02/06 03:59:25;;;;;;;7.30;3.40;;;;;;;;;;5028206;28;20209;-86
2023/02/06 04:01:54;;;;;;;6.00;3.03;;;;;;;;;;5029763;28;20189;-86
2023/02/06 04:04:21;;;;;;;7.17;2.67;;;;;;;;;;5025910;28;20941;-86
2023/02/06 04:06:47;;;;;;;8.47;3.20;;;;;;;;;;5023689;28;20182;-85
2023/02/06 04:09:13;;;;;;;7.13;2.90;;;;;;;;;;5028959;28;20243;-85
2023/02/06 04:11:39;;;;;;;8.73;2.70;;;;;;;;;;5028634;28;20265;-86
2023/02/06 04:14:05;;;;;;;9.97;3.50;;;;;;;;;;5029027;28;20684;-87
2023/02/06 04:16:31;;;;;;;8.57;4.83;;;;;;;;;;5025142;28;20582;-84
2023/02/06 04:18:57;;;;;;;8.77;3.60;;;;;;;;;;5026514;28;20528;-85
2023/02/06 04:21:23;;;;;;;9.13;3.20;;;;;;;;;;5032346;28;20182;-86
2023/02/06 04:23:49;;;;;;;11.30;4.40;;;;;;;;;;5029865;28;20194;-86
2023/02/06 04:26:15;;;;;;;8.43;3.37;;;;;;;;;;5028023;28;20181;-86
2023/02/06 04:28:41;;;;;;;10.13;3.63;;;;;;;;;;5020074;28;20195;-87
2023/02/06 04:31:07;;;;;;;8.73;3.23;;;;;;;;;;5027994;28;20198;-84
2023/02/06 04:33:33;;;;;;;8.43;2.97;;;;;;;;;;5033765;28;20170;-85
2023/02/06 04:35:59;;;;;;;8.30;3.60;;;;;;;;;;5033162;28;20206;-86
2023/02/06 04:38:25;;;;;;;8.60;3.20;;;;;;;;;;5028357;28;20285;-86
2023/02/06 04:40:52;;;;;;;14.47;3.87;;;;;;;;;;5021043;28;20158;-87
2023/02/06 04:43:18;;;;;;;8.97;3.60;;;;;;;;;;5025496;28;20178;-85
2023/02/06 04:45:44;;;;;;;9.03;3.20;;;;;;;;;;5022806;28;20265;-85
2023/02/06 04:48:10;;;;;;;8.17;3.60;;;;;;;;;;5028501;28;20217;-85
2023/02/06 04:50:36;;;;;;;14.30;3.33;;;;;;;;;;5029665;28;20216;-87
2023/02/06 04:53:02;;;;;;;11.53;3.73;;;;;;;;;;5029444;28;20181;-86
2023/02/06 04:55:28;;;;;;;9.17;3.27;;;;;;;;;;5026739;28;20241;-85
2023/02/06 04:57:54;;;;;;;5.63;2.80;;;;;;;;;;5023001;28;20189;-85
2023/02/06 05:00:20;;;;;;;8.63;3.47;;;;;;;;;;5031266;28;20273;-86
2023/02/06 05:02:46;;;;;;;9.50;2.83;;;;;;;;;;5027701;28;20248;-86
2023/02/06 05:05:12;;;;;;;7.90;3.13;;;;;;;;;;5029855;28;20193;-88
2023/02/06 05:07:38;;;;;;;14.97;3.13;;;;;;;;;;5028246;28;20701;-87
2023/02/06 05:10:05;;;;;;;7.90;3.17;;;;;;;;;;5028372;28;20590;-87
2023/02/06 05:12:31;;;;;;;7.83;3.50;;;;;;;;;;5029811;28;20336;-88
2023/02/06 05:14:57;;;;;;;8.07;3.20;;;;;;;;;;5029897;28;20881;-87
2023/02/06 05:17:23;;;;;;;11.00;3.60;;;;;;;;;;5031014;28;20177;-87
2023/02/06 05:19:49;;;;;;;9.47;3.27;;;;;;;;;;5045665;28;20192;-86
2023/02/06 05:22:15;;;;;;;14.27;3.60;;;;;;;;;;5028599;28;20188;-86
2023/02/06 05:24:41;;;;;;;11.47;3.40;;;;;;;;;;5027683;28;20200;-87
2023/02/06 05:27:07;;;;;;;8.97;3.67;;;;;;;;;;5026806;28;20189;-88
2023/02/06 05:29:33;;;;;;;11.83;3.50;;;;;;;;;;5026909;28;20182;-88
2023/02/06 05:31:59;;;;;;;11.23;3.47;;;;;;;;;;5034115;28;20177;-87
2023/02/06 05:34:25;;;;;;;9.47;3.73;;;;;;;;;;5026616;28;20225;-88
2023/02/06 05:36:51;;;;;;;9.57;3.90;;;;;;;;;;5031157;28;20227;-87
2023/02/06 05:39:18;;;;;;;10.70;3.27;;;;;;;;;;5024932;28;20236;-90
2023/02/06 05:41:44;;;;;;;11.73;4.10;;;;;;;;;;5020119;28;20209;-87
2023/02/06 05:44:10;;;;;;;11.90;3.80;;;;;;;;;;5031965;28;20620;-86
2023/02/06 05:46:37;;;;;;;9.80;3.37;;;;;;;;;;5023940;28;20242;-86
2023/02/06 05:49:03;;;;;;;11.80;4.10;;;;;;;;;;5030743;28;20162;-90
2023/02/06 05:51:29;;;;;;;9.53;3.73;;;;;;;;;;5027239;28;20181;-89
2023/02/06 05:53:55;;;;;;;8.50;3.20;;;;;;;;;;5021650;28;20209;-88
2023/02/06 05:56:21;;;;;;;10.67;3.80;;;;;;;;;;5017750;28;20224;-89
2023/02/06 05:58:47;;;;;;;13.73;3.30;;;;;;;;;;5012850;28;20221;-88
2023/02/06 06:01:13;;;;;;;13.30;3.83;;;;;;;;;;5020424;28;20186;-85
2023/02/06 06:03:39;;;;;;;8.90;3.87;;;;;;;;;;5031389;28;20181;-83
2023/02/06 06:06:06;;;;;;;10.57;3.80;;;;;;;;;;5036749;28;20245;-86
2023/02/06 06:08:32;;;;;;;11.70;4.03;;;;;;;;;;5036612;28;20178;-84
2023/02/06 06:11:00;;;;;;;11.23;4.63;;;;;;;;;;5023372;28;20188;-84
2023/02/06 06:13:26;;;;;;;9.43;3.90;;;;;;;;;;5027335;28;20685;-84
2023/02/06 06:15:52;;;;;;;8.90;3.97;;;;;;;;;;5029319;28;20210;-86
2023/02/06 06:18:18;;;;;;;11.37;3.97;;;;;;;;;;5023548;28;20189;-85
2023/02/06 06:20:46;;;;;;;10.80;3.93;;;;;;;;;;5027204;28;20574;-85
2023/02/06 06:23:12;;;;;;;14.00;4.40;;;;;;;;;;5029974;28;20190;-87
2023/02/06 06:25:38;;;;;;;12.27;4.13;;;;;;;;;;5029195;28;20186;-88
2023/02/06 06:28:04;;;;;;;12.10;4.43;;;;;;;;;;5031224;28;20662;-90
2023/02/06 06:30:30;;;;;;;9.57;5.30;;;;;;;;;;5032164;28;20196;-86
2023/02/06 06:32:56;;;;;;;14.80;5.57;;;;;;;;;;5033943;28;20232;-88
2023/02/06 06:35:24;;;;;;;14.07;6.87;;;;;;;;;;5028978;28;20220;-89
2023/02/06 06:37:50;;;;;;;16.57;7.13;;;;;;;;;;5033216;28;20174;-88
2023/02/06 06:40:16;;;;;;;19.63;6.57;;;;;;;;;;5034354;28;20182;-81
2023/02/06 06:42:42;;;;;;;17.87;6.30;;;;;;;;;;5035331;28;20649;-88
2023/02/06 06:45:08;;;;;;;16.90;6.57;;;;;;;;;;5036064;28;20189;-87
2023/02/06 06:47:34;;;;;;;18.40;5.87;;;;;;;;;;5035414;28;20182;-86
2023/02/06 06:50:01;;;;;;;13.10;5.90;;;;;;;;;;5032259;28;20192;-87
2023/02/06 06:52:27;;;;;;;13.27;5.53;;;;;;;;;;5036168;28;20189;-88
2023/02/06 06:54:53;;;;;;;12.77;5.53;;;;;;;;;;5034877;28;20536;-88
2023/02/06 06:57:20;;;;;;;11.27;6.03;;;;;;;;;;5024701;28;20184;-86
2023/02/06 06:59:46;;;;;;;9.80;5.07;;;;;;;;;;5025966;28;20265;-85
2023/02/06 07:02:12;;;;;;;13.27;5.37;;;;;;;;;;5025252;28;20257;-88
2023/02/06 07:04:38;;;;;;;10.07;4.73;;;;;;;;;;5030250;28;20198;-85
2023/02/06 07:07:04;;;;;;;10.13;5.13;;;;;;;;;;5036386;28;20174;-87
2023/02/06 07:09:30;;;;;;;8.47;4.93;;;;;;;;;;5030872;28;20578;-87
2023/02/06 07:11:56;;;;;;;7.07;4.63;;;;;;;;;;5023242;28;20591;-85
2023/02/06 07:14:22;;;;;;;11.43;4.90;;;;;;;;;;5029631;28;20182;-85
2023/02/06 07:16:48;;;;;;;12.50;5.10;;;;;;;;;;5032556;28;20487;-87
2023/02/06 07:19:16;;;;;;;9.17;5.50;;;;;;;;;;5029296;28;20198;-88
2023/02/06 07:21:42;;;;;;;7.33;4.63;;;;;;;;;;5034483;28;20178;-86
2023/02/06 07:24:08;;;;;;;10.93;5.37;;;;;;;;;;5030406;28;20268;-87
2023/02/06 07:26:34;;;;;;;8.73;4.57;;;;;;;;;;5031021;28;20181;-86
2023/02/06 07:29:00;;;;;;;10.67;4.53;;;;;;;;;;5037458;28;20196;-87
2023/02/06 07:31:26;;;;;;;10.90;5.33;;;;;;;;;;5037619;28;20161;-86
2023/02/06 07:33:52;;;;;;;8.47;4.73;;;;;;;;;;5037610;28;20700;-87
2023/02/06 07:36:18;;;;;;;11.83;5.03;;;;;;;;;;5037115;28;20620;-87
2023/02/06 07:38:44;;;;;;;12.50;5.13;;;;;;;;;;5038018;28;20225;-86
2023/02/06 07:41:10;;;;;;;8.90;5.30;;;;;;;;;;5034785;28;20170;-86
2023/02/06 07:43:38;;;;;;;9.00;4.80;;;;;;;;;;5017078;28;20178;-87
2023/02/06 07:46:04;;;;;;;11.00;4.80;;;;;;;;;;5015447;28;20201;-88
2023/02/06 07:48:30;;;;;;;10.77;5.00;;;;;;;;;;5016714;28;20205;-87
2023/02/06 07:50:57;;;;;;;5.73;4.73;;;;;;;;;;5032181;28;20186;-85
2023/02/06 07:53:23;;;;;;;9.13;5.70;;;;;;;;;;5035931;28;20208;-86
2023/02/06 07:55:49;;;;;;;11.53;5.23;;;;;;;;;;5035063;28;20386;-88
2023/02/06 07:58:15;;;;;;;10.27;5.07;;;;;;;;;;5036449;28;20181;-87
2023/02/06 08:00:41;;;;;;;11.43;5.90;;;;;;;;;;5036294;28;20173;-87
2023/02/06 08:03:07;;;;;;;11.80;5.67;;;;;;;;;;5036717;28;20158;-87
2023/02/06 08:05:37;;;;;;;10.63;5.67;;;;;;;;;;5037567;28;20223;-87
2023/02/06 08:08:03;;;;;;;9.83;5.77;;;;;;;;;;5037404;28;20197;-86
2023/02/06 08:10:29;;;;;;;9.37;5.83;;;;;;;;;;5036319;28;20226;-87
2023/02/06 08:12:55;;;;;;;9.47;5.73;;;;;;;;;;5025209;28;20256;-86
2023/02/06 08:15:21;;;;;;;12.47;6.70;;;;;;;;;;5016730;28;20203;-87
2023/02/06 08:17:47;;;;;;;13.20;5.70;;;;;;;;;;5024238;28;20621;-87
2023/02/06 08:20:13;;;;;;;12.97;5.87;;;;;;;;;;5036871;28;20166;-87
2023/02/06 08:22:39;;;;;;;12.60;6.53;;;;;;;;;;5031356;28;20197;-87
2023/02/06 08:25:06;;;;;;;14.87;6.93;;;;;;;;;;5016068;28;20171;-86
2023/02/06 08:27:32;;;;;;;11.57;6.10;;;;;;;;;;5021911;28;20181;-87
2023/02/06 08:29:58;;;;;;;16.07;5.73;;;;;;;;;;5036651;28;20189;-89
2023/02/06 08:32:25;;;;;;;11.17;6.73;;;;;;;;;;5035494;28;20321;-87
2023/02/06 08:34:51;;;;;;;14.33;6.53;;;;;;;;;;5037004;28;20653;-87
2023/02/06 08:37:17;;;;;;;11.70;6.23;;;;;;;;;;5036037;28;20223;-86
2023/02/06 08:39:43;;;;;;;12.30;7.10;;;;;;;;;;5035620;28;20296;-86
2023/02/06 08:42:10;;;;;;;11.53;6.77;;;;;;;;;;5035271;28;20633;-90
2023/02/06 08:44:36;;;;;;;14.70;7.40;;;;;;;;;;5035987;28;20250;-86
2023/02/06 08:47:02;;;;;;;13.80;7.33;;;;;;;;;;5037436;28;20174;-86
2023/02/06 08:49:29;;;;;;;11.53;6.40;;;;;;;;;;5036725;28;20174;-87
2023/02/06 08:51:55;;;;;;;12.80;7.30;;;;;;;;;;5036271;28;20588;-86
2023/02/06 08:54:22;;;;;;;13.17;6.77;;;;;;;;;;5033518;28;20202;-87
2023/02/06 08:56:49;;;;;;;11.00;6.30;;;;;;;;;;5033985;28;20228;-86
2023/02/06 08:59:16;;;;;;;15.30;6.90;;;;;;;;;;5035335;28;20197;-86
2023/02/06 09:01:44;;;;;;;15.67;8.83;;;;;;;;;;5036239;28;20473;-87
2023/02/06 09:04:11;;;;;;;13.43;6.60;;;;;;;;;;5035741;28;20182;-87
2023/02/06 09:06:38;;;;;;;18.47;7.67;;;;;;;;;;5036165;28;20168;-87
2023/02/06 09:09:05;;;;;;;18.17;7.53;;;;;;;;;;5036031;28;20168;-87
2023/02/06 09:11:31;;;;;;;11.50;6.97;;;;;;;;;;5050536;28;20204;-86
2023/02/06 09:13:58;;;;;;;12.30;7.37;;;;;;;;;;5035003;28;20257;-87
2023/02/06 09:16:25;;;;;;;12.93;7.07;;;;;;;;;;5035767;28;20240;-86
2023/02/06 09:18:52;;;;;;;13.10;7.40;;;;;;;;;;5034948;28;20184;-86
2023/02/06 09:21:25;;;;;;;14.60;7.37;;;;;;;;;;5034400;28;20185;-87
2023/02/06 09:23:52;;;;;;;11.50;6.60;;;;;;;;;;5031843;28;20649;-87
2023/02/06 09:26:20;;;;;;;12.20;6.20;;;;;;;;;;5029973;28;20531;-87
2023/02/06 09:28:46;;;;;;;17.97;8.00;;;;;;;;;;5029956;28;20186;-86
2023/02/06 09:31:12;;;;;;;12.47;7.20;;;;;;;;;;5034249;28;20193;-88
2023/02/06 09:33:38;;;;;;;13.93;6.77;;;;;;;;;;5040930;28;20182;-89
2023/02/06 09:36:09;;;;;;;19.60;7.63;;;;;;;;;;5042791;28;20186;-87
2023/02/06 09:38:35;;;;;;;14.00;7.77;;;;;;;;;;5036144;28;20173;-86
2023/02/06 09:41:03;;;;;;;12.73;6.67;;;;;;;;;;5035075;28;20192;-86
2023/02/06 09:43:31;;;;;;;12.67;6.83;;;;;;;;;;5019946;28;20197;-86
2023/02/06 09:45:59;;;;;;;13.17;7.27;;;;;;;;;;5024410;28;20189;-86
2023/02/06 09:48:28;;;;;;;11.87;7.73;;;;;;;;;;5033800;28;20185;-87
2023/02/06 09:50:59;;;;;;;13.83;7.37;;;;;;;;;;5035148;28;20228;-88
2023/02/06 09:53:31;;;;;;;12.37;6.13;;;;;;;;;;5035166;28;20212;-86
2023/02/06 09:56:01;;;;;;;12.50;6.73;;;;;;;;;;5034322;28;20572;-86
2023/02/06 09:58:53;;;;;;;10.03;6.33;;;;;;;;;;5034272;28;20414;-87
2023/02/06 10:01:27;;;;;;;12.60;6.77;;;;;;;;;;5035328;28;20162;-87
2023/02/06 10:04:00;;;;;;;11.03;6.57;;;;;;;;;;5034869;28;20208;-85
2023/02/06 10:06:27;;;;;;;13.50;7.10;;;;;;;;;;5035213;28;20166;-87
2023/02/06 10:08:59;;;;;;;15.93;9.23;;;;;;;;;;5035242;28;20170;-86
2023/02/06 10:11:32;;;;;;;11.33;6.93;;;;;;;;;;5034203;28;20168;-87
2023/02/06 10:13:59;;;;;;;16.87;7.37;;;;;;;;;;5019840;28;20221;-86
2023/02/06 10:16:35;;;;;;;12.00;6.87;;;;;;;;;;5017837;28;21094;-86
2023/02/06 10:19:09;;;;;;;12.33;5.97;;;;;;;;;;5036219;28;20215;-87
2023/02/06 10:21:37;;;;;;;10.87;7.00;;;;;;;;;;5038617;28;20169;-87
2023/02/06 10:24:10;;;;;;;16.33;6.83;;;;;;;;;;5038984;28;20150;-86
2023/02/06 10:26:38;;;;;;;11.60;6.70;;;;;;;;;;5038119;28;20162;-88
2023/02/06 10:29:05;;;;;;;10.23;6.40;;;;;;;;;;5038281;28;20255;-87
2023/02/06 10:31:39;;;;;;;13.97;8.07;;;;;;;;;;5038654;28;20184;-87
2023/02/06 10:34:35;;;;;;;10.30;6.80;;;;;;;;;;5039021;28;20222;-87
2023/02/06 10:37:07;;;;;;;12.37;7.30;;;;;;;;;;5021224;28;20200;-87
2023/02/06 10:39:51;;;;;;;16.33;7.97;;;;;;;;;;5037823;28;20173;-87
2023/02/06 10:42:25;;;;;;;12.33;8.43;;;;;;;;;;5036416;28;20174;-86
2023/02/06 10:44:58;;;;;;;13.60;6.67;;;;;;;;;;5018250;28;20170;-86
2023/02/06 10:47:39;;;;;;;13.70;7.63;;;;;;;;;;5018710;28;20205;-86
2023/02/06 10:50:19;;;;;;;14.80;7.53;;;;;;;;;;5019487;28;20629;-86
2023/02/06 10:52:45;;;;;;;9.53;7.40;;;;;;;;;;5018789;28;20177;-87
2023/02/06 10:55:11;;;;;;;12.13;7.67;;;;;;;;;;5017272;28;20222;-87
2023/02/06 10:57:38;;;;;;;13.97;8.00;;;;;;;;;;5019714;28;20169;-86
2023/02/06 11:00:12;;;;;;;14.57;8.33;;;;;;;;;;5038030;28;20680;-86
2023/02/06 11:02:49;;;;;;;12.43;7.67;;;;;;;;;;5037714;28;20181;-86
2023/02/06 11:05:20;;;;;;;15.47;8.27;;;;;;;;;;5038683;28;20169;-87
2023/02/06 11:07:57;;;;;;;15.43;8.07;;;;;;;;;;5039080;28;20241;-85
2023/02/06 11:10:24;;;;;;;12.27;8.40;;;;;;;;;;5038138;28;20195;-86
2023/02/06 11:13:18;;;;;;;15.20;8.00;;;;;;;;;;5038237;28;20186;-86
2023/02/06 11:15:50;;;;;;;14.90;8.47;;;;;;;;;;5016394;28;20221;-87
2023/02/06 11:18:23;;;;;;;10.87;8.07;;;;;;;;;;5037256;28;20194;-86
2023/02/06 11:20:50;;;;;;;18.67;9.30;;;;;;;;;;5037959;28;20222;-86
2023/02/06 11:23:20;;;;;;;17.07;9.63;;;;;;;;;;5038677;28;20258;-86
2023/02/06 11:25:49;;;;;;;14.37;9.80;;;;;;;;;;5037352;28;20288;-86
2023/02/06 11:28:18;;;;;;;15.60;9.17;;;;;;;;;;5036365;28;20186;-86
2023/02/06 11:30:54;;;;;;;17.60;9.37;;;;;;;;;;5037940;28;20166;-86
2023/02/06 11:33:24;;;;;;;17.40;10.10;;;;;;;;;;5038223;28;20189;-86
2023/02/06 11:35:52;;;;;;;18.90;9.97;;;;;;;;;;5037160;28;20218;-87
2023/02/06 11:38:19;;;;;;;17.57;9.83;;;;;;;;;;5037756;28;20177;-86
2023/02/06 11:40:59;;;;;;;15.53;9.90;;;;;;;;;;5037375;28;20212;-87
2023/02/06 11:43:26;;;;;;;17.73;11.00;;;;;;;;;;5036851;28;20188;-86
2023/02/06 11:46:13;;;;;;;14.93;10.33;;;;;;;;;;5035930;28;20174;-88
2023/02/06 11:48:39;;;;;;;21.93;10.37;;;;;;;;;;5038292;28;20652;-86
2023/02/06 11:51:06;;;;;;;18.97;10.47;;;;;;;;;;5037124;28;20170;-86
2023/02/06 11:53:32;;;;;;;18.50;10.50;;;;;;;;;;5035848;28;20201;-87
2023/02/06 11:56:19;;;;;;;16.33;10.27;;;;;;;;;;5035394;28;20256;-88
2023/02/06 11:58:46;;;;;;;16.10;9.83;;;;;;;;;;5036779;28;20240;-87
2023/02/06 12:01:21;;;;;;;19.47;10.03;;;;;;;;;;5037600;28;20162;-87
2023/02/06 12:03:50;;;;;;;21.57;10.77;;;;;;;;;;5037280;28;20208;-86
2023/02/06 12:06:35;;;;;;;18.03;10.60;;;;;;;;;;5036963;28;20574;-86
2023/02/06 12:09:04;;;;;;;16.47;10.30;;;;;;;;;;5037710;28;20170;-86
2023/02/06 12:11:35;;;;;;;15.33;9.67;;;;;;;;;;5035687;28;20182;-87
2023/02/06 12:14:06;;;;;;;15.97;9.83;;;;;;;;;;5027319;28;20198;-86
2023/02/06 12:16:34;;;;;;;20.47;11.00;;;;;;;;;;5032417;28;20633;-83
2023/02/06 12:19:01;;;;;;;27.53;12.07;;;;;;;;;;5033524;28;20194;-88
2023/02/06 12:21:34;;;;;;;18.87;10.70;;;;;;;;;;5022238;28;20269;-88
2023/02/06 12:24:02;;;;;;;18.93;10.93;;;;;;;;;;5025893;28;20181;-87
2023/02/06 12:26:29;;;;;;;18.63;10.87;;;;;;;;;;5034590;28;20622;-87
2023/02/06 12:28:58;;;;;;;19.33;11.57;;;;;;;;;;5040246;28;20625;-87
2023/02/06 12:31:27;;;;;;;25.03;12.87;;;;;;;;;;5028644;28;20673;-85
2023/02/06 12:34:09;;;;;;;20.30;12.80;;;;;;;;;;5025777;28;20220;-88
2023/02/06 12:36:37;;;;;;;20.97;13.00;;;;;;;;;;5026898;28;20205;-88
2023/02/06 12:39:06;;;;;;;25.60;12.97;;;;;;;;;;5026581;28;20222;-90
2023/02/06 12:41:35;;;;;;;21.17;12.70;;;;;;;;;;5025847;28;20186;-88
2023/02/06 12:44:30;;;;;;;26.03;13.47;;;;;;;;;;5028700;28;20191;-88
2023/02/06 12:47:11;;;;;;;26.43;13.87;;;;;;;;;;5027351;28;20198;-88
2023/02/06 12:49:51;;;;;;;28.33;15.23;;;;;;;;;;5020132;28;20178;-88
2023/02/06 12:52:20;;;;;;;27.47;15.23;;;;;;;;;;5032211;28;20170;-87
2023/02/06 12:54:53;;;;;;;32.20;16.43;;;;;;;;;;5033391;28;20204;-88
2023/02/06 12:57:20;;;;;;;34.17;16.13;;;;;;;;;;5027587;28;20492;-88
2023/02/06 13:00:02;;;;;;;28.63;17.30;;;;;;;;;;5032876;28;20177;-89
2023/02/06 13:02:47;;;;;;;31.77;15.07;;;;;;;;;;5044791;28;20182;-88
2023/02/06 13:05:20;;;;;;;32.93;15.83;;;;;;;;;;5020508;28;20191;-88
2023/02/06 13:07:47;;;;;;;29.20;16.00;;;;;;;;;;5024961;28;20189;-88
2023/02/06 13:10:18;;;;;;;29.00;14.00;;;;;;;;;;5013498;28;20196;-88
2023/02/06 13:12:52;;;;;;;35.13;15.97;;;;;;;;;;5029712;28;20567;-88
2023/02/06 13:15:22;;;;;;;26.07;14.33;;;;;;;;;;5026824;28;20281;-88
2023/02/06 13:17:50;;;;;;;31.33;13.97;;;;;;;;;;5036043;28;20193;-89
2023/02/06 13:20:19;;;;;;;26.73;15.80;;;;;;;;;;5028583;28;20167;-86
2023/02/06 13:23:15;;;;;;;23.70;14.60;;;;;;;;;;5024602;28;20153;-88
2023/02/06 13:25:41;;;;;;;26.23;14.50;;;;;;;;;;5023742;28;20166;-87
2023/02/06 13:28:23;;;;;;;26.07;13.97;;;;;;;;;;5030375;28;20189;-87
2023/02/06 13:30:58;;;;;;;31.43;15.03;;;;;;;;;;5018597;28;20273;-87
2023/02/06 13:33:25;;;;;;;21.67;14.00;;;;;;;;;;5023529;28;20292;-87
2023/02/06 13:35:55;;;;;;;22.97;14.40;;;;;;;;;;5026959;28;20202;-90
2023/02/06 13:38:24;;;;;;;27.90;14.90;;;;;;;;;;5023795;28;20512;-88
2023/02/06 13:41:09;;;;;;;33.50;15.70;;;;;;;;;;5020316;28;20504;-87
2023/02/06 13:43:35;;;;;;;27.33;15.67;;;;;;;;;;5020141;28;20179;-86
2023/02/06 13:46:05;;;;;;;33.03;15.93;;;;;;;;;;5028730;28;20272;-87
2023/02/06 13:48:31;;;;;;;35.30;17.90;;;;;;;;;;5030642;28;20587;-86
2023/02/06 13:51:16;;;;;;;36.60;17.37;;;;;;;;;;5019895;28;20166;-86
2023/02/06 13:53:57;;;;;;;35.47;18.40;;;;;;;;;;5031686;28;20213;-86
2023/02/06 13:56:50;;;;;;;34.90;15.30;;;;;;;;;;5032350;28;20438;-87
2023/02/06 13:59:18;;;;;;;28.43;16.03;;;;;;;;;;5023035;28;20178;-88
2023/02/06 14:01:45;;;;;;;28.60;15.43;;;;;;;;;;5028245;28;20178;-87
2023/02/06 14:04:16;;;;;;;27.40;14.30;;;;;;;;;;5030700;28;20170;-87
2023/02/06 14:06:56;;;;;;;34.53;16.27;;;;;;;;;;5026404;28;20937;-87
2023/02/06 14:09:40;;;;;;;29.73;15.13;;;;;;;;;;5033025;28;20223;-89
2023/02/06 14:14:56;;;;;;;25.17;13.47;;;;;;;;;;5027455;28;20232;-89
2023/02/06 14:18:00;;;;;;;24.97;13.57;;;;;;;;;;5023777;28;20591;-87
2023/02/06 14:20:33;;;;;;;20.77;12.23;;;;;;;;;;4985808;28;20187;-87
2023/02/06 14:23:10;;;;;;;23.43;12.00;;;;;;;;;;4983859;28;20243;-86
2023/02/06 14:25:45;;;;;;;25.90;13.57;;;;;;;;;;5012196;28;20192;-88
2023/02/06 14:28:14;;;;;;;25.20;12.50;;;;;;;;;;5028505;28;20294;-86
2023/02/06 14:30:41;;;;;;;25.07;13.30;;;;;;;;;;5030452;28;20289;-87
2023/02/06 14:33:15;;;;;;;19.20;12.67;;;;;;;;;;5033254;28;20247;-87
2023/02/06 14:35:44;;;;;;;21.40;12.57;;;;;;;;;;5029431;28;20289;-87
2023/02/06 14:38:25;;;;;;;19.40;11.70;;;;;;;;;;5021796;28;20277;-86
2023/02/06 14:40:53;;;;;;;22.93;11.97;;;;;;;;;;5029437;28;20186;-85
2023/02/06 14:43:21;;;;;;;19.67;11.03;;;;;;;;;;5025589;28;20244;-86
2023/02/06 14:45:49;;;;;;;23.00;10.60;;;;;;;;;;5024573;28;20182;-86